sensor_id;sensor_type;location;lat;lon;timestamp;temperature;humidity
21429;DHT22;10875;50.444;30.540;2022-10-29T00:01:44;12.40;99.90
21429;DHT22;10875;50.444;30.540;2022-10-29T00:04:09;12.40;99.90
21429;DHT22;10875;50.444;30.540;2022-10-29T00:06:35;12.40;99.90
21429;DHT22;10875;50.444;30.540;2022-10-29T00:09:01;12.30;99.90
21429;DHT22;10875;50.444;30.540;2022-10-29T00:11:26;12.30;99.90
21429;DHT22;10875;50.444;30.540;2022-10-29T00:13:54;12.30;99.90
21429;DHT22;10875;50.444;30.540;2022-10-29T00:16:23;12.20;99.90
21429;DHT22;10875;50.444;30.540;2022-10-29T00:18:49;12.20;99.90
21429;DHT22;10875;50.444;30.540;2022-10-29T00:21:18;12.20;99.90
21429;DHT22;10875;50.444;30.540;2022-10-29T00:23:44;12.10;99.90
21429;DHT22;10875;50.444;30.540;2022-10-29T00:26:10;12.10;99.90
21429;DHT22;10875;50.444;30.540;2022-10-29T00:28:36;12.10;99.90
21429;DHT22;10875;50.444;30.540;2022-10-29T00:31:12;12.10;99.90
21429;DHT22;10875;50.444;30.540;2022-10-29T00:33:38;12.10;99.90
21429;DHT22;10875;50.444;30.540;2022-10-29T00:36:15;12.10;99.90
21429;DHT22;10875;50.444;30.540;2022-10-29T00:38:41;12.10;99.90
21429;DHT22;10875;50.444;30.540;2022-10-29T00:41:11;12.00;99.90
21429;DHT22;10875;50.444;30.540;2022-10-29T00:43:37;12.00;99.90
21429;DHT22;10875;50.444;30.540;2022-10-29T00:46:10;12.00;99.90
21429;DHT22;10875;50.444;30.540;2022-10-29T00:48:47;11.90;99.90
21429;DHT22;10875;50.444;30.540;2022-10-29T00:51:14;11.90;99.90
21429;DHT22;10875;50.444;30.540;2022-10-29T00:53:44;11.90;99.90
21429;DHT22;10875;50.444;30.540;2022-10-29T00:56:10;11.90;99.90
21429;DHT22;10875;50.444;30.540;2022-10-29T00:58:40;11.90;99.90
21429;DHT22;10875;50.444;30.540;2022-10-29T01:01:07;12.00;99.90
21429;DHT22;10875;50.444;30.540;2022-10-29T01:03:32;11.90;99.90
21429;DHT22;10875;50.444;30.540;2022-10-29T01:05:59;12.20;99.90
21429;DHT22;10875;50.444;30.540;2022-10-29T01:08:25;11.80;99.90
21429;DHT22;10875;50.444;30.540;2022-10-29T01:16:50;11.80;99.90
21429;DHT22;10875;50.444;30.540;2022-10-29T01:30:45;11.70;99.90
21429;DHT22;10875;50.444;30.540;2022-10-29T01:33:27;11.60;99.90
21429;DHT22;10875;50.444;30.540;2022-10-29T01:38:47;11.60;99.90
21429;DHT22;10875;50.444;30.540;2022-10-29T01:44:20;11.60;99.90
21429;DHT22;10875;50.444;30.540;2022-10-29T01:46:52;11.50;99.90
21429;DHT22;10875;50.444;30.540;2022-10-29T01:49:27;11.50;99.90
21429;DHT22;10875;50.444;30.540;2022-10-29T01:51:55;11.50;99.90
21429;DHT22;10875;50.444;30.540;2022-10-29T01:54:21;11.50;99.90
21429;DHT22;10875;50.444;30.540;2022-10-29T01:56:56;11.50;99.90
21429;DHT22;10875;50.444;30.540;2022-10-29T01:59:25;11.40;99.90
21429;DHT22;10875;50.444;30.540;2022-10-29T02:04:44;11.40;99.90
21429;DHT22;10875;50.444;30.540;2022-10-29T02:07:28;11.40;99.90
21429;DHT22;10875;50.444;30.540;2022-10-29T02:12:52;11.40;99.90
21429;DHT22;10875;50.444;30.540;2022-10-29T02:15:26;11.40;99.90
21429;DHT22;10875;50.444;30.540;2022-10-29T02:17:58;11.30;99.90
21429;DHT22;10875;50.444;30.540;2022-10-29T02:20:24;11.30;99.90
21429;DHT22;10875;50.444;30.540;2022-10-29T02:22:49;11.30;99.90
21429;DHT22;10875;50.444;30.540;2022-10-29T02:25:16;11.30;99.90
21429;DHT22;10875;50.444;30.540;2022-10-29T02:27:41;11.30;99.90
21429;DHT22;10875;50.444;30.540;2022-10-29T02:30:07;11.10;99.90
21429;DHT22;10875;50.444;30.540;2022-10-29T02:32:33;11.20;99.90
21429;DHT22;10875;50.444;30.540;2022-10-29T02:34:59;11.80;99.90
21429;DHT22;10875;50.444;30.540;2022-10-29T02:37:25;11.20;99.90
21429;DHT22;10875;50.444;30.540;2022-10-29T02:39:51;11.20;99.90
21429;DHT22;10875;50.444;30.540;2022-10-29T02:42:16;11.10;99.90
21429;DHT22;10875;50.444;30.540;2022-10-29T02:44:42;11.10;99.90
21429;DHT22;10875;50.444;30.540;2022-10-29T02:47:08;11.10;99.90
21429;DHT22;10875;50.444;30.540;2022-10-29T02:49:33;11.10;99.90
21429;DHT22;10875;50.444;30.540;2022-10-29T02:51:59;11.10;99.90
21429;DHT22;10875;50.444;30.540;2022-10-29T02:54:24;9.60;99.90
21429;DHT22;10875;50.444;30.540;2022-10-29T02:56:50;11.10;99.90
21429;DHT22;10875;50.444;30.540;2022-10-29T02:59:15;11.10;99.90
21429;DHT22;10875;50.444;30.540;2022-10-29T03:01:41;11.00;99.90
21429;DHT22;10875;50.444;30.540;2022-10-29T03:04:07;11.00;99.90
21429;DHT22;10875;50.444;30.540;2022-10-29T03:06:32;11.00;99.90
21429;DHT22;10875;50.444;30.540;2022-10-29T03:08:58;10.90;99.90
21429;DHT22;10875;50.444;30.540;2022-10-29T03:11:23;10.90;99.90
21429;DHT22;10875;50.444;30.540;2022-10-29T03:13:49;10.90;99.90
21429;DHT22;10875;50.444;30.540;2022-10-29T03:16:14;10.90;99.90
21429;DHT22;10875;50.444;30.540;2022-10-29T03:18:40;10.90;99.90
21429;DHT22;10875;50.444;30.540;2022-10-29T03:21:09;10.70;99.90
21429;DHT22;10875;50.444;30.540;2022-10-29T03:23:34;11.10;99.90
21429;DHT22;10875;50.444;30.540;2022-10-29T03:26:00;10.80;99.90
21429;DHT22;10875;50.444;30.540;2022-10-29T03:28:26;10.80;99.90
21429;DHT22;10875;50.444;30.540;2022-10-29T03:30:56;10.80;99.90
21429;DHT22;10875;50.444;30.540;2022-10-29T03:33:22;10.80;99.90
21429;DHT22;10875;50.444;30.540;2022-10-29T03:36:04;10.70;99.90
21429;DHT22;10875;50.444;30.540;2022-10-29T03:38:30;10.70;99.90
21429;DHT22;10875;50.444;30.540;2022-10-29T03:40:58;10.70;99.90
21429;DHT22;10875;50.444;30.540;2022-10-29T03:43:24;10.70;99.90
21429;DHT22;10875;50.444;30.540;2022-10-29T03:45:51;10.70;99.90
21429;DHT22;10875;50.444;30.540;2022-10-29T03:48:17;10.70;99.90
21429;DHT22;10875;50.444;30.540;2022-10-29T03:50:42;10.60;99.90
21429;DHT22;10875;50.444;30.540;2022-10-29T03:53:08;10.70;99.90
21429;DHT22;10875;50.444;30.540;2022-10-29T03:55:34;10.70;99.90
21429;DHT22;10875;50.444;30.540;2022-10-29T03:58:00;10.70;99.90
21429;DHT22;10875;50.444;30.540;2022-10-29T04:00:25;10.60;99.90
21429;DHT22;10875;50.444;30.540;2022-10-29T04:02:51;10.60;99.90
21429;DHT22;10875;50.444;30.540;2022-10-29T04:05:17;10.60;99.90
21429;DHT22;10875;50.444;30.540;2022-10-29T04:07:42;10.60;99.90
21429;DHT22;10875;50.444;30.540;2022-10-29T04:10:08;10.50;99.90
21429;DHT22;10875;50.444;30.540;2022-10-29T04:12:33;11.00;99.90
21429;DHT22;10875;50.444;30.540;2022-10-29T04:14:59;10.50;99.90
21429;DHT22;10875;50.444;30.540;2022-10-29T04:17:24;10.50;99.90
21429;DHT22;10875;50.444;30.540;2022-10-29T04:19:50;11.10;99.90
21429;DHT22;10875;50.444;30.540;2022-10-29T04:22:16;11.00;99.90
21429;DHT22;10875;50.444;30.540;2022-10-29T04:24:41;10.40;99.90
21429;DHT22;10875;50.444;30.540;2022-10-29T04:27:07;10.40;99.90
21429;DHT22;10875;50.444;30.540;2022-10-29T04:29:32;10.50;99.90
21429;DHT22;10875;50.444;30.540;2022-10-29T04:31:58;10.40;99.90
21429;DHT22;10875;50.444;30.540;2022-10-29T04:34:24;10.40;99.90
21429;DHT22;10875;50.444;30.540;2022-10-29T04:36:50;10.40;99.90
21429;DHT22;10875;50.444;30.540;2022-10-29T04:39:16;10.40;99.90
21429;DHT22;10875;50.444;30.540;2022-10-29T04:41:42;11.90;99.90
21429;DHT22;10875;50.444;30.540;2022-10-29T04:44:10;10.40;99.90
21429;DHT22;10875;50.444;30.540;2022-10-29T04:46:36;10.40;99.90
21429;DHT22;10875;50.444;30.540;2022-10-29T04:49:02;10.30;99.90
21429;DHT22;10875;50.444;30.540;2022-10-29T04:51:27;10.30;99.90
21429;DHT22;10875;50.444;30.540;2022-10-29T04:53:53;10.30;99.90
21429;DHT22;10875;50.444;30.540;2022-10-29T04:56:20;10.30;99.90
21429;DHT22;10875;50.444;30.540;2022-10-29T04:58:49;10.30;99.90
21429;DHT22;10875;50.444;30.540;2022-10-29T05:01:15;10.40;99.90
21429;DHT22;10875;50.444;30.540;2022-10-29T05:03:40;10.40;99.90
21429;DHT22;10875;50.444;30.540;2022-10-29T05:06:06;10.40;99.90
21429;DHT22;10875;50.444;30.540;2022-10-29T05:08:32;10.30;99.90
21429;DHT22;10875;50.444;30.540;2022-10-29T05:11:01;10.30;99.90
21429;DHT22;10875;50.444;30.540;2022-10-29T05:13:27;10.40;99.90
21429;DHT22;10875;50.444;30.540;2022-10-29T05:15:53;10.40;99.90
21429;DHT22;10875;50.444;30.540;2022-10-29T05:18:18;10.40;99.90
21429;DHT22;10875;50.444;30.540;2022-10-29T05:20:44;10.40;99.90
21429;DHT22;10875;50.444;30.540;2022-10-29T05:23:10;10.40;99.90
21429;DHT22;10875;50.444;30.540;2022-10-29T05:25:37;10.50;99.90
21429;DHT22;10875;50.444;30.540;2022-10-29T05:28:06;10.40;99.90
21429;DHT22;10875;50.444;30.540;2022-10-29T05:30:33;10.40;99.90
21429;DHT22;10875;50.444;30.540;2022-10-29T05:32:59;10.50;99.90
21429;DHT22;10875;50.444;30.540;2022-10-29T05:35:25;10.60;99.90
21429;DHT22;10875;50.444;30.540;2022-10-29T05:37:52;10.60;99.90
21429;DHT22;10875;50.444;30.540;2022-10-29T05:40:18;10.80;99.90
21429;DHT22;10875;50.444;30.540;2022-10-29T05:42:43;10.80;99.90
21429;DHT22;10875;50.444;30.540;2022-10-29T05:45:09;10.80;99.90
21429;DHT22;10875;50.444;30.540;2022-10-29T05:47:35;11.10;99.90
21429;DHT22;10875;50.444;30.540;2022-10-29T05:50:00;11.40;99.90
21429;DHT22;10875;50.444;30.540;2022-10-29T05:52:26;11.70;99.90
21429;DHT22;10875;50.444;30.540;2022-10-29T05:54:51;11.80;99.90
21429;DHT22;10875;50.444;30.540;2022-10-29T05:57:17;12.00;99.90
21429;DHT22;10875;50.444;30.540;2022-10-29T05:59:45;12.20;99.90
21429;DHT22;10875;50.444;30.540;2022-10-29T06:02:10;12.30;99.90
21429;DHT22;10875;50.444;30.540;2022-10-29T06:04:39;12.40;99.90
21429;DHT22;10875;50.444;30.540;2022-10-29T06:07:05;12.50;99.90
21429;DHT22;10875;50.444;30.540;2022-10-29T06:09:30;12.50;99.90
21429;DHT22;10875;50.444;30.540;2022-10-29T06:11:56;12.70;99.90
21429;DHT22;10875;50.444;30.540;2022-10-29T06:14:22;14.20;99.90
21429;DHT22;10875;50.444;30.540;2022-10-29T06:16:47;13.10;99.90
21429;DHT22;10875;50.444;30.540;2022-10-29T06:19:13;13.20;99.90
21429;DHT22;10875;50.444;30.540;2022-10-29T06:21:39;13.20;99.90
21429;DHT22;10875;50.444;30.540;2022-10-29T06:24:05;13.10;99.90
21429;DHT22;10875;50.444;30.540;2022-10-29T06:26:30;13.20;99.90
21429;DHT22;10875;50.444;30.540;2022-10-29T06:28:56;13.10;99.90
21429;DHT22;10875;50.444;30.540;2022-10-29T06:31:22;13.00;99.90
21429;DHT22;10875;50.444;30.540;2022-10-29T06:33:47;12.90;99.90
21429;DHT22;10875;50.444;30.540;2022-10-29T06:36:13;12.90;99.90
21429;DHT22;10875;50.444;30.540;2022-10-29T06:38:38;14.30;99.90
21429;DHT22;10875;50.444;30.540;2022-10-29T06:41:04;12.90;99.90
21429;DHT22;10875;50.444;30.540;2022-10-29T06:43:30;12.90;99.90
21429;DHT22;10875;50.444;30.540;2022-10-29T06:45:55;12.90;99.90
21429;DHT22;10875;50.444;30.540;2022-10-29T06:48:21;12.90;99.90
21429;DHT22;10875;50.444;30.540;2022-10-29T06:50:47;12.60;99.90
21429;DHT22;10875;50.444;30.540;2022-10-29T06:53:13;12.60;99.90
21429;DHT22;10875;50.444;30.540;2022-10-29T06:55:39;12.70;99.90
21429;DHT22;10875;50.444;30.540;2022-10-29T06:58:11;12.30;99.90
21429;DHT22;10875;50.444;30.540;2022-10-29T07:00:38;12.30;99.90
21429;DHT22;10875;50.444;30.540;2022-10-29T07:03:04;12.30;99.90
21429;DHT22;10875;50.444;30.540;2022-10-29T07:05:31;12.30;99.90
21429;DHT22;10875;50.444;30.540;2022-10-29T07:07:58;12.20;99.90
21429;DHT22;10875;50.444;30.540;2022-10-29T07:10:26;12.20;99.90
21429;DHT22;10875;50.444;30.540;2022-10-29T07:12:52;12.30;99.90
21429;DHT22;10875;50.444;30.540;2022-10-29T07:15:18;12.30;99.90
21429;DHT22;10875;50.444;30.540;2022-10-29T07:18:16;12.40;99.90
21429;DHT22;10875;50.444;30.540;2022-10-29T07:20:43;12.50;99.90
21429;DHT22;10875;50.444;30.540;2022-10-29T07:23:10;12.20;99.90
21429;DHT22;10875;50.444;30.540;2022-10-29T07:25:37;12.70;99.90
21429;DHT22;10875;50.444;30.540;2022-10-29T07:30:36;12.70;99.90
21429;DHT22;10875;50.444;30.540;2022-10-29T07:33:02;12.60;99.90
21429;DHT22;10875;50.444;30.540;2022-10-29T07:35:28;12.50;99.90
21429;DHT22;10875;50.444;30.540;2022-10-29T07:37:58;12.50;99.90
21429;DHT22;10875;50.444;30.540;2022-10-29T07:40:24;12.50;99.90
21429;DHT22;10875;50.444;30.540;2022-10-29T07:42:53;12.50;99.90
21429;DHT22;10875;50.444;30.540;2022-10-29T07:45:19;12.50;99.90
21429;DHT22;10875;50.444;30.540;2022-10-29T07:47:44;12.50;99.90
21429;DHT22;10875;50.444;30.540;2022-10-29T07:50:10;12.60;99.90
21429;DHT22;10875;50.444;30.540;2022-10-29T07:52:37;12.70;99.90
21429;DHT22;10875;50.444;30.540;2022-10-29T07:55:03;12.70;99.90
21429;DHT22;10875;50.444;30.540;2022-10-29T07:57:30;12.80;99.90
21429;DHT22;10875;50.444;30.540;2022-10-29T07:59:55;12.80;99.90
21429;DHT22;10875;50.444;30.540;2022-10-29T08:02:21;12.90;99.90
21429;DHT22;10875;50.444;30.540;2022-10-29T08:04:46;11.90;99.90
21429;DHT22;10875;50.444;30.540;2022-10-29T08:07:12;13.00;99.90
21429;DHT22;10875;50.444;30.540;2022-10-29T08:09:38;12.60;99.90
21429;DHT22;10875;50.444;30.540;2022-10-29T08:12:04;12.90;99.90
21429;DHT22;10875;50.444;30.540;2022-10-29T08:14:31;13.00;99.90
21429;DHT22;10875;50.444;30.540;2022-10-29T08:16:57;13.00;99.90
21429;DHT22;10875;50.444;30.540;2022-10-29T08:19:23;13.20;99.90
21429;DHT22;10875;50.444;30.540;2022-10-29T08:21:48;13.80;99.90
21429;DHT22;10875;50.444;30.540;2022-10-29T08:24:14;14.20;99.90
21429;DHT22;10875;50.444;30.540;2022-10-29T08:26:40;14.50;99.90
21429;DHT22;10875;50.444;30.540;2022-10-29T08:29:06;14.50;99.90
21429;DHT22;10875;50.444;30.540;2022-10-29T08:31:32;14.40;99.90
21429;DHT22;10875;50.444;30.540;2022-10-29T08:33:57;14.40;99.90
21429;DHT22;10875;50.444;30.540;2022-10-29T08:36:23;14.60;99.90
21429;DHT22;10875;50.444;30.540;2022-10-29T08:38:49;15.10;99.90
21429;DHT22;10875;50.444;30.540;2022-10-29T08:46:36;16.10;99.90
21429;DHT22;10875;50.444;30.540;2022-10-29T08:49:15;16.40;99.90
21429;DHT22;10875;50.444;30.540;2022-10-29T08:51:43;16.70;99.90
21429;DHT22;10875;50.444;30.540;2022-10-29T08:54:13;16.80;99.90
21429;DHT22;10875;50.444;30.540;2022-10-29T08:56:51;16.80;99.90
21429;DHT22;10875;50.444;30.540;2022-10-29T08:59:23;16.60;99.90
21429;DHT22;10875;50.444;30.540;2022-10-29T09:01:50;16.40;99.90
21429;DHT22;10875;50.444;30.540;2022-10-29T09:04:32;16.30;99.90
21429;DHT22;10875;50.444;30.540;2022-10-29T09:09:45;16.00;99.90
21429;DHT22;10875;50.444;30.540;2022-10-29T09:20:56;15.90;99.90
21429;DHT22;10875;50.444;30.540;2022-10-29T09:26:07;16.20;99.90
21429;DHT22;10875;50.444;30.540;2022-10-29T09:29:14;16.40;99.90
21429;DHT22;10875;50.444;30.540;2022-10-29T09:31:46;16.60;99.90
21429;DHT22;10875;50.444;30.540;2022-10-29T09:34:17;16.60;99.90
21429;DHT22;10875;50.444;30.540;2022-10-29T09:36:45;16.60;99.90
21429;DHT22;10875;50.444;30.540;2022-10-29T09:39:13;16.40;99.90
21429;DHT22;10875;50.444;30.540;2022-10-29T09:41:39;16.40;99.90
21429;DHT22;10875;50.444;30.540;2022-10-29T09:44:26;16.40;99.90
21429;DHT22;10875;50.444;30.540;2022-10-29T09:47:31;16.30;99.90
21429;DHT22;10875;50.444;30.540;2022-10-29T09:50:14;16.30;99.90
21429;DHT22;10875;50.444;30.540;2022-10-29T09:52:43;16.30;99.90
21429;DHT22;10875;50.444;30.540;2022-10-29T09:55:22;16.40;99.90
21429;DHT22;10875;50.444;30.540;2022-10-29T09:57:49;16.50;99.90
21429;DHT22;10875;50.444;30.540;2022-10-29T10:00:19;16.60;99.90
21429;DHT22;10875;50.444;30.540;2022-10-29T10:05:27;16.60;99.90
21429;DHT22;10875;50.444;30.540;2022-10-29T10:08:06;16.60;99.90
21429;DHT22;10875;50.444;30.540;2022-10-29T10:10:38;16.60;99.90
21429;DHT22;10875;50.444;30.540;2022-10-29T10:13:15;16.60;99.90
21429;DHT22;10875;50.444;30.540;2022-10-29T10:15:45;16.60;99.90
21429;DHT22;10875;50.444;30.540;2022-10-29T10:18:25;16.70;99.90
21429;DHT22;10875;50.444;30.540;2022-10-29T10:23:48;16.70;99.90
21429;DHT22;10875;50.444;30.540;2022-10-29T10:26:26;16.70;99.90
21429;DHT22;10875;50.444;30.540;2022-10-29T10:36:53;16.50;99.90
21429;DHT22;10875;50.444;30.540;2022-10-29T10:41:48;16.30;99.90
21429;DHT22;10875;50.444;30.540;2022-10-29T10:44:15;16.30;99.90
21429;DHT22;10875;50.444;30.540;2022-10-29T10:46:43;16.10;99.90
21429;DHT22;10875;50.444;30.540;2022-10-29T10:51:53;15.90;99.90
21429;DHT22;10875;50.444;30.540;2022-10-29T10:54:38;15.80;99.90
21429;DHT22;10875;50.444;30.540;2022-10-29T11:00:02;15.90;99.90
21429;DHT22;10875;50.444;30.540;2022-10-29T11:05:22;15.80;99.90
21429;DHT22;10875;50.444;30.540;2022-10-29T11:08:02;15.70;99.90
21429;DHT22;10875;50.444;30.540;2022-10-29T11:10:51;15.70;99.90
21429;DHT22;10875;50.444;30.540;2022-10-29T11:13:22;15.70;99.90
21429;DHT22;10875;50.444;30.540;2022-10-29T11:16:15;15.70;99.90
21429;DHT22;10875;50.444;30.540;2022-10-29T11:18:48;15.70;99.90
21429;DHT22;10875;50.444;30.540;2022-10-29T11:21:32;15.70;99.90
21429;DHT22;10875;50.444;30.540;2022-10-29T11:27:28;15.70;99.90
21429;DHT22;10875;50.444;30.540;2022-10-29T11:30:17;15.80;99.90
21429;DHT22;10875;50.444;30.540;2022-10-29T11:35:49;15.90;99.90
21429;DHT22;10875;50.444;30.540;2022-10-29T11:38:27;15.90;99.90
21429;DHT22;10875;50.444;30.540;2022-10-29T11:40:59;16.00;99.90
21429;DHT22;10875;50.444;30.540;2022-10-29T11:43:29;15.60;99.90
21429;DHT22;10875;50.444;30.540;2022-10-29T11:52:08;16.00;99.90
21429;DHT22;10875;50.444;30.540;2022-10-29T11:57:24;16.00;99.90
21429;DHT22;10875;50.444;30.540;2022-10-29T12:32:37;16.70;99.90
21429;DHT22;10875;50.444;30.540;2022-10-29T12:38:34;16.80;99.90
21429;DHT22;10875;50.444;30.540;2022-10-29T12:41:12;16.90;99.90
21429;DHT22;10875;50.444;30.540;2022-10-29T12:43:40;16.80;99.90
21429;DHT22;10875;50.444;30.540;2022-10-29T12:51:31;16.80;99.90
21429;DHT22;10875;50.444;30.540;2022-10-29T12:56:46;16.80;99.90
21429;DHT22;10875;50.444;30.540;2022-10-29T13:01:53;16.70;99.90
21429;DHT22;10875;50.444;30.540;2022-10-29T13:04:28;16.90;99.90
21429;DHT22;10875;50.444;30.540;2022-10-29T13:09:41;17.00;99.90
21429;DHT22;10875;50.444;30.540;2022-10-29T13:12:11;17.20;99.90
21429;DHT22;10875;50.444;30.540;2022-10-29T13:19:56;17.20;99.90
21429;DHT22;10875;50.444;30.540;2022-10-29T13:27:59;17.20;99.90
21429;DHT22;10875;50.444;30.540;2022-10-29T13:30:28;17.20;99.90
21429;DHT22;10875;50.444;30.540;2022-10-29T13:32:54;17.20;99.90
21429;DHT22;10875;50.444;30.540;2022-10-29T13:43:03;17.20;99.90
21429;DHT22;10875;50.444;30.540;2022-10-29T13:45:30;17.20;99.90
21429;DHT22;10875;50.444;30.540;2022-10-29T13:48:06;17.00;99.90
21429;DHT22;10875;50.444;30.540;2022-10-29T13:50:37;17.20;99.90
21429;DHT22;10875;50.444;30.540;2022-10-29T13:53:05;17.10;99.90
21429;DHT22;10875;50.444;30.540;2022-10-29T13:55:33;17.20;99.90
21429;DHT22;10875;50.444;30.540;2022-10-29T13:58:11;17.10;99.90
21429;DHT22;10875;50.444;30.540;2022-10-29T14:00:38;17.10;99.90
21429;DHT22;10875;50.444;30.540;2022-10-29T14:03:15;17.00;99.90
21429;DHT22;10875;50.444;30.540;2022-10-29T14:05:50;17.10;99.90
21429;DHT22;10875;50.444;30.540;2022-10-29T14:08:40;17.00;99.90
21429;DHT22;10875;50.444;30.540;2022-10-29T14:11:13;17.00;99.90
21429;DHT22;10875;50.444;30.540;2022-10-29T14:13:41;17.00;99.90
21429;DHT22;10875;50.444;30.540;2022-10-29T14:16:12;17.00;99.90
21429;DHT22;10875;50.444;30.540;2022-10-29T14:18:48;16.90;99.90
21429;DHT22;10875;50.444;30.540;2022-10-29T14:21:21;16.90;99.90
21429;DHT22;10875;50.444;30.540;2022-10-29T14:24:14;17.00;99.90
21429;DHT22;10875;50.444;30.540;2022-10-29T14:26:42;16.90;99.90
21429;DHT22;10875;50.444;30.540;2022-10-29T14:29:19;16.90;99.90
21429;DHT22;10875;50.444;30.540;2022-10-29T14:31:46;16.90;99.90
21429;DHT22;10875;50.444;30.540;2022-10-29T14:34:24;16.90;99.90
21429;DHT22;10875;50.444;30.540;2022-10-29T14:36:53;16.90;99.90
21429;DHT22;10875;50.444;30.540;2022-10-29T14:39:27;16.80;99.90
21429;DHT22;10875;50.444;30.540;2022-10-29T14:41:54;16.90;99.90
21429;DHT22;10875;50.444;30.540;2022-10-29T14:44:31;16.90;99.90
21429;DHT22;10875;50.444;30.540;2022-10-29T14:49:26;16.90;99.90
21429;DHT22;10875;50.444;30.540;2022-10-29T14:54:24;16.80;99.90
21429;DHT22;10875;50.444;30.540;2022-10-29T14:57:03;16.80;99.90
21429;DHT22;10875;50.444;30.540;2022-10-29T14:59:32;16.80;99.90
21429;DHT22;10875;50.444;30.540;2022-10-29T15:02:00;16.90;99.90
21429;DHT22;10875;50.444;30.540;2022-10-29T15:04:28;16.80;99.90
21429;DHT22;10875;50.444;30.540;2022-10-29T15:09:48;17.00;99.90
21429;DHT22;10875;50.444;30.540;2022-10-29T15:12:31;17.00;99.90
21429;DHT22;10875;50.444;30.540;2022-10-29T15:15:19;17.00;99.90
21429;DHT22;10875;50.444;30.540;2022-10-29T15:18:15;17.00;99.90
21429;DHT22;10875;50.444;30.540;2022-10-29T15:25:51;17.00;99.90
21429;DHT22;10875;50.444;30.540;2022-10-29T15:28:29;17.00;99.90
21429;DHT22;10875;50.444;30.540;2022-10-29T15:30:55;17.00;99.90
21429;DHT22;10875;50.444;30.540;2022-10-29T15:33:25;17.80;99.90
21429;DHT22;10875;50.444;30.540;2022-10-29T15:36:02;17.00;99.90
21429;DHT22;10875;50.444;30.540;2022-10-29T15:43:53;17.00;99.90
21429;DHT22;10875;50.444;30.540;2022-10-29T15:46:27;17.00;99.90
21429;DHT22;10875;50.444;30.540;2022-10-29T15:48:53;17.00;99.90
21429;DHT22;10875;50.444;30.540;2022-10-29T15:51:26;17.00;99.90
21429;DHT22;10875;50.444;30.540;2022-10-29T15:53:56;16.90;99.90
21429;DHT22;10875;50.444;30.540;2022-10-29T15:56:23;16.80;99.90
21429;DHT22;10875;50.444;30.540;2022-10-29T15:58:50;16.90;99.90
21429;DHT22;10875;50.444;30.540;2022-10-29T16:01:16;16.80;99.90
21429;DHT22;10875;50.444;30.540;2022-10-29T16:03:42;16.80;99.90
21429;DHT22;10875;50.444;30.540;2022-10-29T16:06:09;16.80;99.90
21429;DHT22;10875;50.444;30.540;2022-10-29T16:08:40;16.90;99.90
21429;DHT22;10875;50.444;30.540;2022-10-29T16:11:11;16.90;99.90
21429;DHT22;10875;50.444;30.540;2022-10-29T16:13:38;16.80;99.90
21429;DHT22;10875;50.444;30.540;2022-10-29T16:16:05;16.70;99.90
21429;DHT22;10875;50.444;30.540;2022-10-29T16:18:31;16.70;99.90
21429;DHT22;10875;50.444;30.540;2022-10-29T16:20:58;16.70;99.90
21429;DHT22;10875;50.444;30.540;2022-10-29T16:23:24;16.70;99.90
21429;DHT22;10875;50.444;30.540;2022-10-29T16:25:50;16.70;99.90
21429;DHT22;10875;50.444;30.540;2022-10-29T16:28:16;16.70;99.90
21429;DHT22;10875;50.444;30.540;2022-10-29T16:30:41;16.80;99.90
21429;DHT22;10875;50.444;30.540;2022-10-29T16:33:09;16.80;99.90
21429;DHT22;10875;50.444;30.540;2022-10-29T16:35:35;16.80;99.90
21429;DHT22;10875;50.444;30.540;2022-10-29T16:38:01;16.80;99.90
21429;DHT22;10875;50.444;30.540;2022-10-29T16:40:27;16.90;99.90
21429;DHT22;10875;50.444;30.540;2022-10-29T16:42:54;16.80;99.90
21429;DHT22;10875;50.444;30.540;2022-10-29T16:45:26;16.80;99.90
21429;DHT22;10875;50.444;30.540;2022-10-29T16:47:52;16.80;99.90
21429;DHT22;10875;50.444;30.540;2022-10-29T16:50:32;16.90;99.90
21429;DHT22;10875;50.444;30.540;2022-10-29T16:53:06;16.80;99.90
21429;DHT22;10875;50.444;30.540;2022-10-29T16:55:34;16.90;99.90
21429;DHT22;10875;50.444;30.540;2022-10-29T16:58:00;16.90;99.90
21429;DHT22;10875;50.444;30.540;2022-10-29T17:00:26;16.80;99.90
21429;DHT22;10875;50.444;30.540;2022-10-29T17:02:51;16.80;99.90
21429;DHT22;10875;50.444;30.540;2022-10-29T17:05:17;16.80;99.90
21429;DHT22;10875;50.444;30.540;2022-10-29T17:07:42;16.80;99.90
21429;DHT22;10875;50.444;30.540;2022-10-29T17:10:09;16.80;99.90
21429;DHT22;10875;50.444;30.540;2022-10-29T17:12:35;16.80;99.90
21429;DHT22;10875;50.444;30.540;2022-10-29T17:15:00;16.80;99.90
21429;DHT22;10875;50.444;30.540;2022-10-29T17:17:29;16.80;99.90
21429;DHT22;10875;50.444;30.540;2022-10-29T17:19:55;16.80;99.90
21429;DHT22;10875;50.444;30.540;2022-10-29T17:22:20;16.80;99.90
21429;DHT22;10875;50.444;30.540;2022-10-29T17:24:46;16.70;99.90
21429;DHT22;10875;50.444;30.540;2022-10-29T17:27:12;16.70;99.90
21429;DHT22;10875;50.444;30.540;2022-10-29T17:29:38;16.70;99.90
21429;DHT22;10875;50.444;30.540;2022-10-29T17:32:05;16.70;99.90
21429;DHT22;10875;50.444;30.540;2022-10-29T17:34:34;16.70;99.90
21429;DHT22;10875;50.444;30.540;2022-10-29T17:37:00;16.70;99.90
21429;DHT22;10875;50.444;30.540;2022-10-29T17:39:25;16.60;99.90
21429;DHT22;10875;50.444;30.540;2022-10-29T17:41:51;16.60;99.90
21429;DHT22;10875;50.444;30.540;2022-10-29T17:44:17;16.60;99.90
21429;DHT22;10875;50.444;30.540;2022-10-29T17:46:42;16.60;99.90
21429;DHT22;10875;50.444;30.540;2022-10-29T17:49:08;16.40;99.90
21429;DHT22;10875;50.444;30.540;2022-10-29T17:51:34;16.50;99.90
21429;DHT22;10875;50.444;30.540;2022-10-29T17:54:00;16.50;99.90
21429;DHT22;10875;50.444;30.540;2022-10-29T17:56:25;16.50;99.90
21429;DHT22;10875;50.444;30.540;2022-10-29T17:58:51;16.50;99.90
21429;DHT22;10875;50.444;30.540;2022-10-29T18:01:16;16.40;99.90
21429;DHT22;10875;50.444;30.540;2022-10-29T18:03:42;16.40;99.90
21429;DHT22;10875;50.444;30.540;2022-10-29T18:06:10;16.40;99.90
21429;DHT22;10875;50.444;30.540;2022-10-29T18:08:37;16.40;99.90
21429;DHT22;10875;50.444;30.540;2022-10-29T18:11:03;16.40;99.90
21429;DHT22;10875;50.444;30.540;2022-10-29T18:13:34;16.30;99.90
21429;DHT22;10875;50.444;30.540;2022-10-29T18:16:02;16.20;99.90
21429;DHT22;10875;50.444;30.540;2022-10-29T18:18:28;16.20;99.90
21429;DHT22;10875;50.444;30.540;2022-10-29T18:20:54;16.20;99.90
21429;DHT22;10875;50.444;30.540;2022-10-29T18:23:20;16.10;99.90